Time;durP1;ratioP1;P1;durP2;ratioP2;P2;SDS_P1;SDS_P2;PMS_P1;PMS_P2;Temp;Humidity;BMP_temperature;BMP_pressure;BME280_temperature;BME280_humidity;BME280_pressure;Samples;Min_cycle;Max_cycle;Signal;HPM_P1;HPM_P2
2021/09/26 00:01:21;;;;;;;;;18.00;18.00;;;;;20.51;66.35;101055.66;5057919;28;45407;-80
2021/09/26 00:03:47;;;;;;;;;17.50;17.50;;;;;20.50;65.98;101053.91;5059365;28;45407;-79
2021/09/26 00:06:13;;;;;;;;;23.00;19.75;;;;;20.49;66.31;101041.63;5049977;28;45177;-79
2021/09/26 00:08:38;;;;;;;;;18.25;17.00;;;;;20.46;66.09;101033.69;5059004;28;45313;-79
2021/09/26 00:11:07;;;;;;;;;18.25;16.50;;;;;20.48;66.01;101039.84;5058790;28;45311;-79
2021/09/26 00:13:38;;;;;;;;;20.75;18.50;;;;;20.41;65.53;101024.88;5058775;28;45414;-80
2021/09/26 00:16:06;;;;;;;;;20.25;15.50;;;;;20.42;66.19;101043.31;5058957;28;45450;-79
2021/09/26 00:18:32;;;;;;;;;17.25;14.50;;;;;20.41;66.36;101045.91;5058960;27;45420;-80
2021/09/26 00:20:58;;;;;;;;;25.75;19.50;;;;;20.34;65.98;101037.13;5064702;28;45351;-85
2021/09/26 00:23:27;;;;;;;;;15.00;15.00;;;;;20.41;65.50;101046.81;5064230;28;45443;-84
2021/09/26 00:25:54;;;;;;;;;16.50;16.50;;;;;20.42;65.84;101055.56;5063944;28;45467;-81
2021/09/26 00:28:21;;;;;;;;;13.50;12.25;;;;;20.43;65.77;101067.84;5059736;28;45344;-80
2021/09/26 00:30:47;;;;;;;;;17.50;16.50;;;;;20.33;65.55;101043.25;5059450;28;45393;-80
2021/09/26 00:33:13;;;;;;;;;16.25;15.00;;;;;20.37;65.40;101059.91;5058710;28;45393;-79
2021/09/26 00:35:39;;;;;;;;;16.50;14.00;;;;;20.36;65.07;101060.78;5057091;28;45500;-79
2021/09/26 00:38:06;;;;;;;;;19.50;15.75;;;;;20.36;65.12;101060.78;5058416;28;46382;-80
2021/09/26 00:40:31;;;;;;;;;14.50;12.00;;;;;20.35;65.23;101057.28;5058823;28;45504;-79
2021/09/26 00:42:57;;;;;;;;;14.75;14.25;;;;;20.35;64.54;101065.19;5058456;28;45319;-79
2021/09/26 00:45:22;;;;;;;;;14.00;12.00;;;;;20.33;64.87;101060.75;5057701;28;45493;-79
2021/09/26 00:47:49;;;;;;;;;15.50;14.00;;;;;20.32;64.40;101066.88;5058692;28;45889;-80
2021/09/26 00:50:16;;;;;;;;;13.50;13.25;;;;;20.32;64.51;101070.41;5058486;28;45679;-81
2021/09/26 00:52:45;;;;;;;;;15.00;12.50;;;;;20.31;64.49;101071.25;5058703;28;45232;-77
2021/09/26 00:55:12;;;;;;;;;11.50;9.75;;;;;20.26;64.78;101078.22;5058189;28;45545;-80
2021/09/26 00:57:39;;;;;;;;;14.50;12.25;;;;;20.30;64.44;101095.78;5058381;28;46448;-77
2021/09/26 01:00:07;;;;;;;;;12.75;12.75;;;;;20.26;64.17;101087.00;5058182;28;45318;-79
2021/09/26 01:02:32;;;;;;;;;16.25;14.00;;;;;20.28;64.90;101083.50;5058384;28;45364;-78
2021/09/26 01:04:58;;;;;;;;;14.50;13.25;;;;;20.26;64.28;101076.50;5057981;28;45596;-79
2021/09/26 01:07:52;;;;;;;;;14.00;13.25;;;;;20.28;64.46;101073.84;5058251;28;46028;-81
2021/09/26 01:10:31;;;;;;;;;12.50;11.00;;;;;20.25;64.72;101071.19;5058924;28;45809;-78
2021/09/26 01:13:14;;;;;;;;;15.50;14.75;;;;;20.29;64.29;101083.50;5058907;28;45452;-78
2021/09/26 01:16:01;;;;;;;;;15.50;14.50;;;;;20.28;64.31;101084.38;5059508;28;45322;-77
2021/09/26 01:19:12;;;;;;;;;15.25;15.00;;;;;20.29;64.94;101085.28;5060133;28;45823;-78
2021/09/26 01:21:52;;;;;;;;;16.25;13.25;;;;;20.24;64.70;101072.09;5058226;28;45396;-84
2021/09/26 01:24:35;;;;;;;;;17.00;13.75;;;;;20.24;64.85;101072.09;5058991;28;45334;-79
2021/09/26 01:27:24;;;;;;;;;19.50;14.25;;;;;20.22;64.43;101073.81;5057529;28;45276;-84
2021/09/26 01:30:09;;;;;;;;;17.00;14.50;;;;;20.18;64.84;101080.81;5058294;28;45639;-83
2021/09/26 01:32:39;;;;;;;;;15.50;13.75;;;;;20.19;64.82;101082.53;5056897;28;45276;-82
2021/09/26 01:35:09;;;;;;;;;21.25;16.50;;;;;20.20;64.82;101070.28;5058614;28;45279;-84
2021/09/26 01:37:45;;;;;;;;;15.00;12.50;;;;;20.24;65.01;101083.47;5061285;28;45354;-85
2021/09/26 01:40:21;;;;;;;;;17.00;14.75;;;;;20.29;64.65;101094.03;5057563;28;45319;-84
2021/09/26 01:42:54;;;;;;;;;18.25;14.25;;;;;20.32;64.61;101098.44;5057809;28;45561;-82
2021/09/26 01:45:28;;;;;;;;;15.25;13.00;;;;;20.31;64.79;101094.94;5058170;28;45261;-81
2021/09/26 01:48:00;;;;;;;;;17.25;15.25;;;;;20.29;65.14;101098.41;5073349;28;45587;-83
2021/09/26 01:50:28;;;;;;;;;13.50;12.50;;;;;20.24;65.23;101101.00;5057405;28;46266;-78
2021/09/26 01:52:57;;;;;;;;;19.00;18.00;;;;;20.17;65.22;101091.28;5057438;28;45417;-83
2021/09/26 01:55:28;;;;;;;;;12.25;11.25;;;;;20.09;65.50;101076.31;5056337;28;45437;-83
2021/09/26 01:57:57;;;;;;;;;13.25;12.75;;;;;20.07;64.99;101078.06;5056573;28;45427;-83
2021/09/26 02:00:23;;;;;;;;;13.50;13.50;;;;;19.93;65.09;101063.88;5061296;28;46337;-81
2021/09/26 02:02:52;;;;;;;;;12.50;11.00;;;;;19.99;65.20;101076.22;5064766;28;45934;-81
2021/09/26 02:05:18;;;;;;;;;14.50;10.75;;;;;19.98;65.49;101080.59;5060718;28;45337;-80
2021/09/26 02:07:47;;;;;;;;;11.25;10.00;;;;;19.95;64.98;101073.56;5074840;28;45282;-82
2021/09/26 02:10:16;;;;;;;;;15.75;13.00;;;;;19.92;65.28;101072.66;5057879;28;46125;-79
2021/09/26 02:12:42;;;;;;;;;6.00;5.00;;;;;19.97;65.35;101067.44;5059302;28;45794;-83
2021/09/26 02:15:12;;;;;;;;;10.00;8.25;;;;;19.98;65.16;101069.22;5058038;28;45420;-83
2021/09/26 02:17:39;;;;;;;;;12.25;8.25;;;;;20.01;64.92;101075.38;5057709;28;45451;-81
2021/09/26 02:20:06;;;;;;;;;8.75;8.75;;;;;20.05;65.40;101076.28;5056985;28;45394;-83
2021/09/26 02:22:33;;;;;;;;;8.75;7.75;;;;;20.09;64.64;101076.31;5056852;28;45797;-83
2021/09/26 02:25:00;;;;;;;;;11.75;9.75;;;;;20.11;64.93;101084.22;5057138;28;45329;-82
2021/09/26 02:27:27;;;;;;;;;10.75;9.25;;;;;20.08;65.23;101086.84;5063921;27;45545;-80
2021/09/26 02:29:54;;;;;;;;;8.75;8.75;;;;;20.09;64.88;101089.47;5057677;28;45462;-84
2021/09/26 02:32:19;;;;;;;;;12.00;9.75;;;;;20.10;65.25;101085.97;5056978;28;45304;-78
2021/09/26 02:34:45;;;;;;;;;13.75;11.00;;;;;20.10;64.69;101083.34;5056813;28;45432;-80
2021/09/26 02:37:11;;;;;;;;;9.00;8.75;;;;;20.06;65.16;101072.78;5056114;28;45327;-82
2021/09/26 02:39:37;;;;;;;;;9.75;9.00;;;;;20.14;65.44;101088.66;5038551;28;45817;-81
2021/09/26 02:42:09;;;;;;;;;8.00;8.00;;;;;20.14;65.37;101088.66;5056239;28;45749;-81
2021/09/26 02:45:17;;;;;;;;;11.00;10.00;;;;;20.16;64.72;101097.41;5056435;28;45550;-81
2021/09/26 02:47:50;;;;;;;;;9.00;8.50;;;;;20.15;64.57;101085.13;5034881;28;45482;-81
2021/09/26 02:50:17;;;;;;;;;10.00;9.00;;;;;20.21;64.65;101091.31;5057949;28;45965;-78
2021/09/26 02:52:45;;;;;;;;;9.00;9.00;;;;;20.19;64.90;101079.03;5063136;28;45429;-80
2021/09/26 02:55:13;;;;;;;;;12.50;11.25;;;;;20.22;64.60;101079.06;5061865;28;45324;-80
2021/09/26 02:57:38;;;;;;;;;10.00;9.50;;;;;20.17;64.79;101065.91;5059376;28;45456;-81
2021/09/26 03:00:05;;;;;;;;;9.50;7.25;;;;;20.22;64.78;101068.56;5057635;28;45463;-82
2021/09/26 03:02:33;;;;;;;;;9.50;8.75;;;;;20.25;64.43;101060.69;5056579;28;45438;-81
2021/09/26 03:04:59;;;;;;;;;9.75;8.25;;;;;20.24;64.92;101058.94;5057249;28;45393;-80
2021/09/26 03:07:24;;;;;;;;;12.00;10.25;;;;;20.19;64.83;101050.13;5056172;28;45398;-81
2021/09/26 03:09:50;;;;;;;;;13.00;11.75;;;;;20.16;65.12;101031.69;5056673;28;45520;-77
2021/09/26 03:12:19;;;;;;;;;11.50;11.00;;;;;20.13;65.26;101043.06;5055985;28;45373;-80
2021/09/26 03:14:46;;;;;;;;;10.25;10.25;;;;;20.02;65.10;101032.47;5056087;28;45462;-80
2021/09/26 03:17:12;;;;;;;;;14.00;12.00;;;;;19.99;65.19;101039.41;5056330;28;45273;-77
2021/09/26 03:19:37;;;;;;;;;12.00;10.00;;;;;19.83;65.33;101031.38;5056115;28;45204;-80
2021/09/26 03:22:05;;;;;;;;;11.75;11.50;;;;;19.80;66.37;101026.06;5055019;28;45319;-80
2021/09/26 03:24:31;;;;;;;;;12.00;10.00;;;;;19.76;66.37;101027.78;5054982;28;45492;-80
2021/09/26 03:27:00;;;;;;;;;12.75;9.50;;;;;19.74;66.39;101024.25;5055883;28;45360;-79
2021/09/26 03:29:26;;;;;;;;;13.25;10.50;;;;;19.68;66.18;101029.47;5056079;28;46225;-81
2021/09/26 03:31:52;;;;;;;;;11.75;9.50;;;;;19.58;66.89;101019.72;5055435;28;45761;-78
2021/09/26 03:34:17;;;;;;;;;16.50;12.50;;;;;19.54;67.37;101013.56;5055257;28;45476;-79
2021/09/26 03:36:43;;;;;;;;;11.00;9.50;;;;;19.53;67.09;101018.78;5056215;28;45272;-79
2021/09/26 03:39:08;;;;;;;;;8.50;8.50;;;;;19.50;67.33;101022.25;5056380;28;45823;-80
2021/09/26 03:41:34;;;;;;;;;14.00;12.75;;;;;19.46;66.93;101017.81;5060417;28;45223;-81
2021/09/26 03:43:59;;;;;;;;;9.75;9.25;;;;;19.51;67.81;101029.28;5058605;28;45205;-78
2021/09/26 03:46:25;;;;;;;;;13.25;12.25;;;;;19.54;67.13;101023.16;5056105;28;45316;-78
2021/09/26 03:48:51;;;;;;;;;10.75;9.00;;;;;19.55;67.09;101020.53;5051052;28;47745;-78
2021/09/26 03:51:17;;;;;;;;;10.50;10.50;;;;;19.54;67.69;101015.28;5043320;28;45761;-77
2021/09/26 03:53:43;;;;;;;;;11.00;9.75;;;;;19.56;67.44;101006.56;5055278;28;45290;-78
2021/09/26 03:56:08;;;;;;;;;14.25;13.50;;;;;19.62;67.24;101022.41;5056485;28;45516;-77
2021/09/26 03:58:34;;;;;;;;;12.00;10.50;;;;;19.69;67.24;101012.84;5054616;28;46274;-80
2021/09/26 04:00:59;;;;;;;;;14.50;14.50;;;;;19.68;66.65;101010.19;5050714;28;45513;-78
2021/09/26 04:03:25;;;;;;;;;11.25;10.25;;;;;19.67;67.21;101011.94;5052972;28;45485;-79
2021/09/26 04:05:51;;;;;;;;;13.75;12.50;;;;;19.67;68.04;101008.41;5045597;28;45489;-82
2021/09/26 04:08:17;;;;;;;;;13.00;12.00;;;;;19.63;67.66;101010.13;5055448;28;46466;-85
2021/09/26 04:10:43;;;;;;;;;12.00;12.00;;;;;19.64;67.70;101014.53;5055513;28;45189;-86
2021/09/26 04:13:08;;;;;;;;;15.00;13.50;;;;;19.58;68.00;101009.22;5055392;28;45383;-85
2021/09/26 04:15:35;;;;;;;;;15.00;13.00;;;;;19.60;68.08;101008.34;5054555;28;45555;-85
2021/09/26 04:18:00;;;;;;;;;14.75;13.25;;;;;19.57;68.34;101008.31;5055255;28;46126;-84
2021/09/26 04:20:26;;;;;;;;;13.75;10.75;;;;;19.49;67.89;101000.34;5037106;28;45331;-85
2021/09/26 04:22:51;;;;;;;;;15.75;15.25;;;;;19.51;68.50;101004.75;5055775;28;45260;-76
2021/09/26 04:25:17;;;;;;;;;14.25;13.50;;;;;19.45;68.19;101000.31;5055859;28;45258;-83
2021/09/26 04:27:43;;;;;;;;;16.00;13.75;;;;;19.48;68.93;101002.97;5056269;28;46155;-83
2021/09/26 04:30:09;;;;;;;;;14.00;12.50;;;;;19.43;68.72;100992.41;5065248;28;45212;-86
2021/09/26 04:32:37;;;;;;;;;16.00;13.25;;;;;19.46;68.74;100999.44;5066600;28;45435;-88
2021/09/26 04:35:05;;;;;;;;;15.25;14.25;;;;;19.45;68.71;100997.69;5067475;28;45311;-85
2021/09/26 04:37:31;;;;;;;;;15.25;14.25;;;;;19.37;69.16;100987.13;5061876;28;47735;-80
2021/09/26 04:39:57;;;;;;;;;11.75;11.50;;;;;19.41;68.89;100994.13;5060810;28;45783;-88
2021/09/26 04:42:22;;;;;;;;;15.75;15.50;;;;;19.43;69.07;100991.56;5056315;28;45374;-84
2021/09/26 04:44:48;;;;;;;;;14.50;13.25;;;;;19.41;68.71;100991.50;5054052;28;45347;-85
2021/09/26 04:47:14;;;;;;;;;19.00;15.50;;;;;19.38;69.01;100987.97;5040134;28;45383;-87
2021/09/26 04:49:40;;;;;;;;;14.00;14.00;;;;;19.41;68.81;100994.13;5039419;28;45370;-86
2021/09/26 04:52:06;;;;;;;;;12.75;12.25;;;;;19.40;69.13;100988.88;5056919;28;45425;-83
2021/09/26 04:54:32;;;;;;;;;15.75;14.00;;;;;19.37;68.78;100983.59;5059971;28;45874;-86
2021/09/26 04:56:57;;;;;;;;;16.25;14.00;;;;;19.44;68.66;100991.56;5059181;28;45937;-84
2021/09/26 04:59:24;;;;;;;;;18.75;14.75;;;;;19.43;69.47;100996.81;5061768;28;45355;-83
2021/09/26 05:01:51;;;;;;;;;18.00;15.50;;;;;19.38;68.88;100998.47;5060608;28;45228;-84
2021/09/26 05:04:17;;;;;;;;;18.00;14.00;;;;;19.32;69.02;101004.53;5058785;28;45462;-83
2021/09/26 05:06:43;;;;;;;;;12.50;12.50;;;;;19.32;69.41;101008.06;5058842;28;45968;-82
2021/09/26 05:09:09;;;;;;;;;15.75;14.00;;;;;19.35;69.11;101017.72;5057242;28;45350;-82
2021/09/26 05:11:35;;;;;;;;;13.50;12.25;;;;;19.35;69.20;101009.84;5058247;28;45327;-80
2021/09/26 05:14:00;;;;;;;;;16.25;16.00;;;;;19.40;69.48;101023.88;5058421;28;45515;-83
2021/09/26 05:16:27;;;;;;;;;15.00;11.75;;;;;19.37;69.12;101028.22;5055355;28;45486;-77
2021/09/26 05:18:52;;;;;;;;;14.25;12.50;;;;;19.31;69.37;101016.81;5060400;28;45409;-81
2021/09/26 05:21:18;;;;;;;;;19.00;15.75;;;;;19.25;68.94;101021.97;5064270;28;45378;-80
2021/09/26 05:23:43;;;;;;;;;13.25;12.50;;;;;19.26;69.26;101038.59;5062176;28;45306;-80
2021/09/26 05:26:09;;;;;;;;;17.75;16.00;;;;;19.26;69.40;101042.09;5059710;28;45379;-78
2021/09/26 05:28:35;;;;;;;;;15.00;14.00;;;;;19.26;69.40;101036.84;5059256;28;45423;-78
2021/09/26 05:31:01;;;;;;;;;18.00;15.25;;;;;19.33;69.69;101057.06;5050277;28;46963;-76
2021/09/26 05:33:28;;;;;;;;;19.50;15.75;;;;;19.32;68.99;101052.69;5054590;28;45504;-76
2021/09/26 05:35:56;;;;;;;;;15.00;14.00;;;;;19.30;68.88;101054.41;5058006;28;45302;-78
2021/09/26 05:38:21;;;;;;;;;13.75;12.25;;;;;19.28;68.92;101064.00;5057079;28;45813;-78
2021/09/26 05:40:47;;;;;;;;;15.25;13.25;;;;;19.22;69.58;101063.03;5057499;28;45449;-79
2021/09/26 05:43:13;;;;;;;;;17.00;16.00;;;;;19.24;69.66;101069.19;5057238;28;45238;-78
2021/09/26 05:45:38;;;;;;;;;14.25;12.50;;;;;19.25;69.54;101071.84;5056386;28;45521;-78
2021/09/26 05:48:04;;;;;;;;;19.50;18.00;;;;;19.30;69.55;101070.16;5056995;28;45275;-81
2021/09/26 05:50:31;;;;;;;;;16.00;14.75;;;;;19.24;69.34;101056.06;5058846;28;45255;-87
2021/09/26 05:52:56;;;;;;;;;12.25;11.75;;;;;19.31;69.56;101065.78;5052844;28;45555;-82
2021/09/26 05:55:22;;;;;;;;;18.00;16.50;;;;;19.30;69.44;101064.00;5054179;28;45960;-84
2021/09/26 05:57:47;;;;;;;;;15.25;14.50;;;;;19.44;69.51;101086.09;5057813;28;45531;-79
2021/09/26 06:00:14;;;;;;;;;20.25;14.50;;;;;19.44;69.16;101091.34;5056353;28;45424;-78
2021/09/26 06:02:39;;;;;;;;;14.50;14.50;;;;;19.46;68.96;101094.88;5057182;28;45561;-76
2021/09/26 06:05:07;;;;;;;;;18.25;15.75;;;;;19.49;68.88;101107.16;5057012;28;45599;-76
2021/09/26 06:07:36;;;;;;;;;14.00;14.00;;;;;19.51;68.75;101113.31;5054270;27;45371;-78
2021/09/26 06:10:03;;;;;;;;;14.00;13.00;;;;;19.48;68.92;101113.25;5065580;28;45407;-82
2021/09/26 06:12:29;;;;;;;;;16.00;12.50;;;;;19.45;68.80;101114.13;5066233;28;44846;-83
2021/09/26 06:14:55;;;;;;;;;12.00;10.25;;;;;19.46;69.66;101122.84;5055092;28;46781;-81
2021/09/26 06:17:20;;;;;;;;;17.00;14.25;;;;;19.40;69.75;101109.66;5055115;28;45564;-81
2021/09/26 06:19:46;;;;;;;;;13.25;13.25;;;;;19.27;69.53;101093.75;5056300;28;45541;-82
2021/09/26 06:22:12;;;;;;;;;14.25;13.50;;;;;19.30;69.75;101100.78;5055312;28;45734;-81
2021/09/26 06:24:37;;;;;;;;;17.00;14.75;;;;;19.27;69.53;101100.75;5055618;28;45809;-80
2021/09/26 06:27:03;;;;;;;;;12.00;12.00;;;;;19.27;69.44;101114.75;5055672;28;45288;-80
2021/09/26 06:29:29;;;;;;;;;14.25;12.75;;;;;19.26;69.77;101112.97;5055928;28;45435;-79
2021/09/26 06:31:54;;;;;;;;;16.00;15.00;;;;;19.32;70.36;101130.56;5056001;28;45596;-80
2021/09/26 06:34:20;;;;;;;;;15.75;14.50;;;;;19.22;70.19;101123.41;5056008;28;46241;-81
2021/09/26 06:36:46;;;;;;;;;14.75;14.00;;;;;19.29;70.13;101136.66;5055708;28;45763;-81
2021/09/26 06:39:11;;;;;;;;;13.00;11.25;;;;;19.21;70.03;101127.78;5054977;28;45352;-79
2021/09/26 06:41:38;;;;;;;;;15.25;15.25;;;;;19.20;70.61;101120.78;5055427;28;45494;-80
2021/09/26 06:44:04;;;;;;;;;15.25;13.25;;;;;19.17;70.12;101113.72;5053716;28;45627;-81
2021/09/26 06:46:30;;;;;;;;;13.75;12.75;;;;;19.27;70.47;101133.13;5055505;28;45693;-82
2021/09/26 06:48:55;;;;;;;;;11.75;10.75;;;;;19.19;69.82;101121.63;5056097;28;45419;-85
2021/09/26 06:51:21;;;;;;;;;12.75;11.25;;;;;19.32;70.36;101138.44;5056980;28;45433;-80
2021/09/26 06:53:47;;;;;;;;;16.75;13.50;;;;;19.29;70.18;101139.28;5057190;28;45870;-83
2021/09/26 06:56:13;;;;;;;;;15.50;14.25;;;;;19.26;70.13;101133.09;5057929;28;45433;-85
2021/09/26 06:58:38;;;;;;;;;14.50;13.50;;;;;19.29;70.07;101143.63;5059187;28;45461;-90
2021/09/26 07:01:04;;;;;;;;;12.50;12.00;;;;;19.29;70.35;101148.88;5064855;28;44773;-88
2021/09/26 07:03:31;;;;;;;;;14.25;14.00;;;;;19.32;69.58;101151.56;5065196;28;45463;-85
2021/09/26 07:05:57;;;;;;;;;20.50;17.75;;;;;19.33;70.17;101155.94;5057829;28;45792;-83
2021/09/26 07:08:23;;;;;;;;;22.25;16.25;;;;;19.34;70.21;101149.84;5057537;28;45243;-83
2021/09/26 07:10:48;;;;;;;;;16.75;14.00;;;;;19.23;69.59;101136.56;5059896;28;45346;-84
2021/09/26 07:13:15;;;;;;;;;17.50;14.00;;;;;19.28;69.75;101139.25;5059952;28;46313;-83
2021/09/26 07:15:40;;;;;;;;;16.50;13.75;;;;;19.25;70.10;101131.34;5056906;28;45448;-82
2021/09/26 07:18:06;;;;;;;;;16.25;13.50;;;;;19.29;70.08;101128.78;5054220;28;45469;-83
2021/09/26 07:20:31;;;;;;;;;12.50;12.25;;;;;19.44;69.91;101156.09;5055991;28;45706;-82
2021/09/26 07:22:59;;;;;;;;;14.25;13.25;;;;;19.47;69.56;101158.75;5055778;28;45517;-85
2021/09/26 07:25:26;;;;;;;;;15.75;14.00;;;;;19.56;69.84;101158.00;5056536;28;45479;-85
2021/09/26 07:27:52;;;;;;;;;16.00;12.75;;;;;19.59;69.73;101161.56;5055389;28;45370;-80
2021/09/26 07:30:18;;;;;;;;;10.00;10.00;;;;;19.56;68.82;101156.25;5056500;28;45543;-80
2021/09/26 07:32:44;;;;;;;;;15.25;14.25;;;;;19.49;68.91;101157.91;5071985;27;45559;-82
2021/09/26 07:35:10;;;;;;;;;17.25;14.50;;;;;19.57;69.00;101170.28;5073261;27;45719;-81
2021/09/26 07:37:36;;;;;;;;;16.75;14.00;;;;;19.56;69.55;101172.00;5056048;28;45453;-81
2021/09/26 07:40:03;;;;;;;;;16.25;15.25;;;;;19.58;69.15;101174.69;5055408;28;45481;-79
2021/09/26 07:42:28;;;;;;;;;12.25;10.25;;;;;19.59;69.53;101179.06;5055529;28;46570;-79
2021/09/26 07:44:58;;;;;;;;;17.50;14.75;;;;;19.61;68.92;101180.84;5057938;28;45435;-76
2021/09/26 07:47:24;;;;;;;;;14.75;13.00;;;;;19.59;69.37;101179.06;5056486;28;45278;-75
2021/09/26 07:49:50;;;;;;;;;15.25;14.75;;;;;19.69;69.10;101180.06;5056487;28;45532;-75
2021/09/26 07:52:15;;;;;;;;;13.75;13.00;;;;;19.74;69.25;101187.13;5055087;28;46557;-77
2021/09/26 07:54:41;;;;;;;;;15.75;14.00;;;;;19.82;68.62;101188.97;5055293;28;45350;-75
2021/09/26 07:57:07;;;;;;;;;14.25;14.25;;;;;19.84;68.85;101190.78;5055152;28;45923;-75
2021/09/26 07:59:32;;;;;;;;;19.00;16.25;;;;;19.88;68.78;101202.25;5053171;28;45880;-75
2021/09/26 08:01:58;;;;;;;;;15.75;13.25;;;;;19.92;68.83;101204.94;5055175;28;45379;-76
2021/09/26 08:04:23;;;;;;;;;18.00;15.50;;;;;19.96;68.52;101203.22;5058340;28;45328;-75
2021/09/26 08:06:49;;;;;;;;;18.00;16.50;;;;;20.01;68.50;101209.41;5058929;28;45315;-78
2021/09/26 08:09:15;;;;;;;;;18.00;13.75;;;;;19.99;67.92;101202.34;5058955;28;45675;-76
2021/09/26 08:11:40;;;;;;;;;15.25;11.75;;;;;20.01;67.82;101219.94;5058509;28;45821;-77
2021/09/26 08:14:06;;;;;;;;;14.50;13.75;;;;;19.96;68.34;101203.22;5058243;28;45303;-78
2021/09/26 08:16:32;;;;;;;;;15.50;13.50;;;;;20.01;67.97;101209.41;5058994;28;45308;-76
2021/09/26 08:18:57;;;;;;;;;16.00;13.50;;;;;20.03;68.44;101206.81;5058381;28;45474;-76
2021/09/26 08:21:23;;;;;;;;;17.00;13.00;;;;;20.02;68.34;101202.41;5058335;28;46171;-75
2021/09/26 08:23:48;;;;;;;;;15.50;13.75;;;;;20.19;68.10;101219.25;5058765;28;45377;-75
2021/09/26 08:26:14;;;;;;;;;16.25;13.50;;;;;20.25;67.67;101205.28;5058263;28;45355;-76
2021/09/26 08:28:40;;;;;;;;;16.25;13.50;;;;;20.49;67.19;101219.56;5058716;28;45559;-76
2021/09/26 08:31:06;;;;;;;;;14.50;12.50;;;;;20.60;66.72;101211.81;5057139;28;46797;-75
2021/09/26 08:33:31;;;;;;;;;15.00;14.25;;;;;20.66;67.10;101225.00;5058624;28;45481;-75
2021/09/26 08:35:57;;;;;;;;;15.00;14.00;;;;;20.65;66.88;101210.09;5057829;28;45452;-75
2021/09/26 08:38:23;;;;;;;;;16.75;14.75;;;;;20.69;66.60;101214.53;5057673;28;45515;-74
2021/09/26 08:40:50;;;;;;;;;10.25;10.25;;;;;20.77;66.38;101228.66;5058055;28;45932;-75
2021/09/26 08:43:21;;;;;;;;;15.25;13.00;;;;;20.70;65.99;101214.53;5057583;28;45363;-75
2021/09/26 08:45:48;;;;;;;;;15.25;13.25;;;;;20.75;65.80;101225.13;5058338;28;45886;-73
2021/09/26 08:48:14;;;;;;;;;12.25;11.50;;;;;20.72;65.79;101223.31;5057731;28;45502;-76
2021/09/26 08:50:42;;;;;;;;;17.75;14.25;;;;;20.70;65.72;101218.91;5057944;28;46445;-77
2021/09/26 08:53:08;;;;;;;;;20.25;12.25;;;;;20.70;65.83;101222.41;5057558;28;45386;-78
2021/09/26 08:55:34;;;;;;;;;13.50;11.75;;;;;20.70;65.94;101211.88;5058098;28;45377;-77
2021/09/26 08:58:00;;;;;;;;;15.25;12.50;;;;;20.71;65.39;101218.06;5057598;28;45456;-74
2021/09/26 09:00:27;;;;;;;;;16.25;11.75;;;;;20.69;65.71;101215.38;5057774;28;45487;-77
2021/09/26 09:02:53;;;;;;;;;13.50;12.25;;;;;20.77;65.62;101217.25;5057224;28;45397;-75
2021/09/26 09:05:33;;;;;;;;;15.00;11.50;;;;;20.79;65.32;101210.22;5058050;28;45369;-77
2021/09/26 09:08:14;;;;;;;;;13.50;13.25;;;;;20.87;65.11;101222.59;5057838;28;45410;-77
2021/09/26 09:10:41;;;;;;;;;13.50;13.00;;;;;20.92;64.90;101230.53;5054516;28;46722;-78
2021/09/26 09:13:08;;;;;;;;;14.75;14.25;;;;;20.93;65.35;101213.00;5057973;28;45862;-79
2021/09/26 09:15:33;;;;;;;;;11.25;9.75;;;;;21.13;64.62;101221.94;5061203;28;45302;-80
2021/09/26 09:18:05;;;;;;;;;18.00;16.75;;;;;21.26;64.57;101214.16;5060853;28;45344;-76
2021/09/26 09:20:34;;;;;;;;;12.50;11.50;;;;;21.37;64.06;101222.09;5059513;28;46406;-78
2021/09/26 09:23:21;;;;;;;;;13.50;9.75;;;;;21.44;63.44;101210.72;5057191;27;45734;-79
2021/09/26 09:25:52;;;;;;;;;11.00;9.75;;;;;21.47;63.34;101208.13;5056693;28;45421;-79
2021/09/26 09:28:22;;;;;;;;;14.50;9.25;;;;;21.48;62.54;101204.63;5058253;28;45218;-80
2021/09/26 09:31:00;;;;;;;;;12.50;12.25;;;;;21.54;62.59;101209.94;5057672;28;46079;-78
2021/09/26 09:33:36;;;;;;;;;10.00;9.00;;;;;21.56;62.29;101207.28;5057527;28;45617;-76
2021/09/26 09:36:02;;;;;;;;;11.75;10.25;;;;;21.62;62.08;101213.53;5071990;28;45431;-76
2021/09/26 09:38:27;;;;;;;;;10.75;10.75;;;;;21.67;61.64;101217.91;5057108;28;45276;-78
2021/09/26 09:40:53;;;;;;;;;10.25;9.00;;;;;21.67;61.68;101208.28;5056355;28;45817;-77
2021/09/26 09:43:20;;;;;;;;;12.50;11.75;;;;;21.67;61.76;101210.91;5056975;28;45520;-75
2021/09/26 09:45:53;;;;;;;;;11.00;9.25;;;;;21.71;61.57;101223.22;5057929;28;45475;-81
2021/09/26 09:48:22;;;;;;;;;14.00;11.50;;;;;21.73;61.52;101225.88;5057500;28;45418;-76
2021/09/26 09:50:59;;;;;;;;;11.75;8.00;;;;;21.73;61.49;101226.75;5055910;28;47087;-75
2021/09/26 09:53:34;;;;;;;;;11.25;8.50;;;;;21.74;61.16;101230.28;5057047;28;45756;-79
2021/09/26 09:56:07;;;;;;;;;10.75;10.00;;;;;21.73;60.93;101220.59;5072094;28;45372;-78
2021/09/26 09:58:51;;;;;;;;;13.25;10.00;;;;;21.64;61.51;101221.41;5056902;28;45358;-75
2021/09/26 10:01:38;;;;;;;;;9.50;9.50;;;;;21.60;61.17;101225.81;5057740;28;46508;-74
2021/09/26 10:04:08;;;;;;;;;9.00;9.00;;;;;21.58;61.25;101227.50;5056878;28;45842;-77
2021/09/26 10:06:41;;;;;;;;;10.00;9.25;;;;;21.56;61.75;101229.25;5056999;28;45453;-79
2021/09/26 10:09:13;;;;;;;;;10.50;10.50;;;;;21.56;61.69;101225.75;5056458;28;45449;-75
2021/09/26 10:11:47;;;;;;;;;10.25;10.00;;;;;21.53;61.80;101229.25;5056622;28;46018;-77
2021/09/26 10:14:14;;;;;;;;;12.25;11.00;;;;;21.59;61.83;101226.66;5056063;28;45409;-75
2021/09/26 10:16:40;;;;;;;;;10.25;10.00;;;;;21.57;61.97;101236.28;5056318;28;45538;-75
2021/09/26 10:19:06;;;;;;;;;12.00;10.25;;;;;21.56;61.40;101239.78;5056328;28;45445;-76
2021/09/26 10:21:32;;;;;;;;;11.25;9.50;;;;;21.54;61.65;101245.91;5056109;28;45871;-76
2021/09/26 10:23:59;;;;;;;;;12.25;8.50;;;;;21.55;62.06;101234.50;5056173;28;45623;-75
2021/09/26 10:26:27;;;;;;;;;12.75;12.00;;;;;21.57;61.96;101227.50;5055407;28;45277;-76
2021/09/26 10:28:58;;;;;;;;;14.75;10.25;;;;;21.63;61.95;101232.84;5055405;28;45390;-77
2021/09/26 10:31:28;;;;;;;;;11.25;11.25;;;;;21.65;61.63;101225.81;5055854;28;46015;-79
2021/09/26 10:34:01;;;;;;;;;13.25;13.25;;;;;21.73;61.49;101229.38;5071232;28;45718;-75
2021/09/26 10:36:28;;;;;;;;;12.25;11.25;;;;;21.81;61.56;101226.78;5055516;28;45558;-80
2021/09/26 10:38:54;;;;;;;;;12.00;12.00;;;;;21.86;61.18;101225.06;5068204;28;45614;-83
2021/09/26 10:41:20;;;;;;;;;11.75;8.50;;;;;21.86;60.71;101208.34;5056764;28;45606;-86
2021/09/26 10:43:46;;;;;;;;;10.50;6.50;;;;;21.97;60.45;101221.59;5055629;28;45625;-82
2021/09/26 10:46:30;;;;;;;;;8.50;8.50;;;;;21.90;60.50;101224.19;5059828;28;45437;-83
2021/09/26 10:49:10;;;;;;;;;7.50;7.50;;;;;21.88;60.03;101225.06;5060857;28;45355;-87
2021/09/26 10:51:46;;;;;;;;;13.00;11.25;;;;;21.83;60.07;101224.13;5046559;28;46581;-78
2021/09/26 10:54:21;;;;;;;;;15.25;12.00;;;;;21.77;60.67;101228.53;5055316;28;45825;-79
2021/09/26 10:56:52;;;;;;;;;11.00;11.00;;;;;21.73;60.20;101228.50;5055737;28;45487;-74
2021/09/26 10:59:21;;;;;;;;;8.50;8.50;;;;;21.73;60.20;101229.38;5057095;28;45475;-76
2021/09/26 11:01:47;;;;;;;;;13.00;10.00;;;;;21.72;60.38;101224.09;5055406;28;47152;-82
2021/09/26 11:04:13;;;;;;;;;9.25;7.25;;;;;21.75;60.26;101222.34;5054390;28;45590;-79
2021/09/26 11:06:39;;;;;;;;;7.25;6.50;;;;;21.78;60.72;101225.03;5055669;28;45476;-78
2021/09/26 11:09:08;;;;;;;;;14.00;9.00;;;;;21.80;60.47;101217.13;5055371;28;45403;-82
2021/09/26 11:11:47;;;;;;;;;9.50;9.00;;;;;21.85;60.32;101203.94;5056107;28;45462;-80
2021/09/26 11:14:14;;;;;;;;;10.25;7.50;;;;;21.88;60.09;101191.66;5055099;28;45716;-80
2021/09/26 11:16:59;;;;;;;;;11.25;11.25;;;;;22.08;59.69;101196.16;5055773;28;45561;-75